Hallam, Nebraska
Current Conditions -  °F | °C
As of 8:55 AM on Monday 24 Nov 2014 (Local Time) from KBIE Reporting Station
Overcast Overcast  
Wind Chill: 18°   Ceiling: 2900
Heat Index: 31°   Visibility: 10mi
Dew Point: 20°   Wind: 22mph
Humidity: 64%   Direction: 310°NW
Pressure: 29.73"   Gusts: 30mph
Location:  40.54°N, 96.79°W
Report Text: KBIE 241455Z AUTO 31019G26KT 10SM OVC029 00/M07 A2973 RMK AO2 T10051066
Loading
Personal Weather Stations






























Interactive Weather Map New forecast layout! Learn more

10-Day Weather Forecast

Advertisements
Track Severe Weather on mobile